sensor_id;sensor_type;location;lat;lon;timestamp;P1;durP1;ratioP1;P2;durP2;ratioP2
36547;SDS011;22551;52.206;4.856;2023-04-03T00:00:15;0.52;;;0.35;;
36547;SDS011;22551;52.206;4.856;2023-04-03T00:05:18;2.53;;;0.60;;
36547;SDS011;22551;52.206;4.856;2023-04-03T00:10:24;1.77;;;0.73;;
36547;SDS011;22551;52.206;4.856;2023-04-03T00:15:27;2.47;;;0.57;;
36547;SDS011;22551;52.206;4.856;2023-04-03T00:20:30;2.00;;;0.50;;
36547;SDS011;22551;52.206;4.856;2023-04-03T00:25:35;0.40;;;0.35;;
36547;SDS011;22551;52.206;4.856;2023-04-03T00:30:37;1.25;;;0.55;;
36547;SDS011;22551;52.206;4.856;2023-04-03T00:35:40;1.58;;;0.50;;
36547;SDS011;22551;52.206;4.856;2023-04-03T00:40:44;3.10;;;0.70;;
36547;SDS011;22551;52.206;4.856;2023-04-03T00:45:49;2.22;;;0.63;;
36547;SDS011;22551;52.206;4.856;2023-04-03T00:50:53;1.38;;;0.40;;
36547;SDS011;22551;52.206;4.856;2023-04-03T00:55:58;3.30;;;0.63;;
36547;SDS011;22551;52.206;4.856;2023-04-03T01:01:03;3.20;;;0.80;;
36547;SDS011;22551;52.206;4.856;2023-04-03T01:06:09;1.38;;;0.55;;
36547;SDS011;22551;52.206;4.856;2023-04-03T01:11:14;2.92;;;0.60;;
36547;SDS011;22551;52.206;4.856;2023-04-03T01:16:16;1.75;;;0.60;;
36547;SDS011;22551;52.206;4.856;2023-04-03T01:21:36;0.75;;;0.45;;
36547;SDS011;22551;52.206;4.856;2023-04-03T01:27:05;1.10;;;0.40;;
36547;SDS011;22551;52.206;4.856;2023-04-03T01:32:10;3.80;;;0.95;;
36547;SDS011;22551;52.206;4.856;2023-04-03T01:37:13;2.95;;;0.50;;
36547;SDS011;22551;52.206;4.856;2023-04-03T01:42:15;1.35;;;0.80;;
36547;SDS011;22551;52.206;4.856;2023-04-03T01:47:19;3.13;;;0.50;;
36547;SDS011;22551;52.206;4.856;2023-04-03T01:52:21;1.08;;;0.60;;
36547;SDS011;22551;52.206;4.856;2023-04-03T01:57:24;1.92;;;0.80;;
36547;SDS011;22551;52.206;4.856;2023-04-03T02:02:27;2.45;;;0.70;;
36547;SDS011;22551;52.206;4.856;2023-04-03T02:07:30;1.60;;;0.73;;
36547;SDS011;22551;52.206;4.856;2023-04-03T02:12:32;4.53;;;0.90;;
36547;SDS011;22551;52.206;4.856;2023-04-03T02:17:36;3.10;;;1.02;;
36547;SDS011;22551;52.206;4.856;2023-04-03T02:22:38;1.73;;;0.90;;
36547;SDS011;22551;52.206;4.856;2023-04-03T02:27:40;2.83;;;0.80;;
36547;SDS011;22551;52.206;4.856;2023-04-03T02:32:44;5.18;;;1.00;;
36547;SDS011;22551;52.206;4.856;2023-04-03T02:37:47;4.20;;;0.93;;
36547;SDS011;22551;52.206;4.856;2023-04-03T02:42:49;1.73;;;0.95;;
36547;SDS011;22551;52.206;4.856;2023-04-03T02:47:53;1.70;;;0.77;;
36547;SDS011;22551;52.206;4.856;2023-04-03T02:52:55;4.10;;;0.90;;
36547;SDS011;22551;52.206;4.856;2023-04-03T02:57:57;2.63;;;0.88;;
36547;SDS011;22551;52.206;4.856;2023-04-03T03:03:01;3.20;;;1.08;;
36547;SDS011;22551;52.206;4.856;2023-04-03T03:08:03;2.03;;;0.82;;
36547;SDS011;22551;52.206;4.856;2023-04-03T03:13:06;3.30;;;0.63;;
36547;SDS011;22551;52.206;4.856;2023-04-03T03:18:09;5.47;;;1.27;;
36547;SDS011;22551;52.206;4.856;2023-04-03T03:23:11;3.45;;;0.88;;
36547;SDS011;22551;52.206;4.856;2023-04-03T03:28:14;5.97;;;1.50;;
36547;SDS011;22551;52.206;4.856;2023-04-03T03:33:18;3.53;;;1.20;;
36547;SDS011;22551;52.206;4.856;2023-04-03T03:38:20;1.52;;;0.65;;
36547;SDS011;22551;52.206;4.856;2023-04-03T03:43:25;1.75;;;0.70;;
36547;SDS011;22551;52.206;4.856;2023-04-03T03:48:29;2.80;;;0.93;;
36547;SDS011;22551;52.206;4.856;2023-04-03T03:53:31;5.03;;;1.10;;
36547;SDS011;22551;52.206;4.856;2023-04-03T03:58:33;4.78;;;1.50;;
36547;SDS011;22551;52.206;4.856;2023-04-03T04:03:36;2.53;;;1.23;;
36547;SDS011;22551;52.206;4.856;2023-04-03T04:08:39;2.30;;;0.93;;
36547;SDS011;22551;52.206;4.856;2023-04-03T04:13:42;3.40;;;1.10;;
36547;SDS011;22551;52.206;4.856;2023-04-03T04:18:46;2.08;;;1.27;;
36547;SDS011;22551;52.206;4.856;2023-04-03T04:23:48;1.70;;;0.95;;
36547;SDS011;22551;52.206;4.856;2023-04-03T04:28:50;3.33;;;1.00;;
36547;SDS011;22551;52.206;4.856;2023-04-03T04:33:54;2.35;;;1.25;;
36547;SDS011;22551;52.206;4.856;2023-04-03T04:38:58;6.43;;;1.15;;
36547;SDS011;22551;52.206;4.856;2023-04-03T04:44:01;4.70;;;1.42;;
36547;SDS011;22551;52.206;4.856;2023-04-03T04:49:06;3.33;;;0.88;;
36547;SDS011;22551;52.206;4.856;2023-04-03T04:54:08;6.13;;;1.40;;
36547;SDS011;22551;52.206;4.856;2023-04-03T04:59:10;1.75;;;1.00;;
36547;SDS011;22551;52.206;4.856;2023-04-03T05:04:16;7.03;;;1.63;;
36547;SDS011;22551;52.206;4.856;2023-04-03T05:09:18;3.25;;;1.20;;
36547;SDS011;22551;52.206;4.856;2023-04-03T05:14:21;3.00;;;1.20;;
36547;SDS011;22551;52.206;4.856;2023-04-03T05:19:25;6.38;;;1.30;;
36547;SDS011;22551;52.206;4.856;2023-04-03T05:24:27;3.90;;;0.75;;
36547;SDS011;22551;52.206;4.856;2023-04-03T05:29:29;3.15;;;1.30;;
36547;SDS011;22551;52.206;4.856;2023-04-03T05:34:34;3.20;;;1.02;;
36547;SDS011;22551;52.206;4.856;2023-04-03T05:39:38;3.00;;;1.35;;
36547;SDS011;22551;52.206;4.856;2023-04-03T05:44:41;5.00;;;1.77;;
36547;SDS011;22551;52.206;4.856;2023-04-03T05:49:45;5.68;;;1.70;;
36547;SDS011;22551;52.206;4.856;2023-04-03T05:54:48;2.05;;;1.40;;
36547;SDS011;22551;52.206;4.856;2023-04-03T05:59:51;6.35;;;1.65;;
36547;SDS011;22551;52.206;4.856;2023-04-03T06:04:56;2.67;;;1.40;;
36547;SDS011;22551;52.206;4.856;2023-04-03T06:09:59;4.28;;;1.48;;
36547;SDS011;22551;52.206;4.856;2023-04-03T06:15:01;4.38;;;1.52;;
36547;SDS011;22551;52.206;4.856;2023-04-03T06:20:06;3.72;;;1.25;;
36547;SDS011;22551;52.206;4.856;2023-04-03T06:25:09;2.35;;;1.50;;
36547;SDS011;22551;52.206;4.856;2023-04-03T06:30:12;2.65;;;1.48;;
36547;SDS011;22551;52.206;4.856;2023-04-03T06:35:16;11.80;;;2.55;;
36547;SDS011;22551;52.206;4.856;2023-04-03T06:40:19;4.47;;;1.40;;
36547;SDS011;22551;52.206;4.856;2023-04-03T06:45:25;3.13;;;1.45;;
36547;SDS011;22551;52.206;4.856;2023-04-03T06:50:29;5.28;;;1.40;;
36547;SDS011;22551;52.206;4.856;2023-04-03T06:55:31;4.07;;;1.23;;
36547;SDS011;22551;52.206;4.856;2023-04-03T07:00:33;5.07;;;1.70;;
36547;SDS011;22551;52.206;4.856;2023-04-03T07:05:37;4.75;;;1.35;;
36547;SDS011;22551;52.206;4.856;2023-04-03T07:10:39;3.50;;;1.30;;
36547;SDS011;22551;52.206;4.856;2023-04-03T07:15:42;1.88;;;1.20;;
36547;SDS011;22551;52.206;4.856;2023-04-03T07:20:46;3.10;;;1.10;;
36547;SDS011;22551;52.206;4.856;2023-04-03T07:25:49;6.05;;;1.20;;
36547;SDS011;22551;52.206;4.856;2023-04-03T07:30:53;4.93;;;1.63;;
36547;SDS011;22551;52.206;4.856;2023-04-03T07:36:02;2.67;;;1.20;;
36547;SDS011;22551;52.206;4.856;2023-04-03T07:41:07;2.00;;;1.05;;
36547;SDS011;22551;52.206;4.856;2023-04-03T07:46:15;3.60;;;1.30;;
36547;SDS011;22551;52.206;4.856;2023-04-03T07:51:20;3.50;;;1.52;;
36547;SDS011;22551;52.206;4.856;2023-04-03T07:56:22;6.28;;;1.15;;
36547;SDS011;22551;52.206;4.856;2023-04-03T08:01:25;3.00;;;1.23;;
36547;SDS011;22551;52.206;4.856;2023-04-03T08:06:30;6.95;;;1.20;;
36547;SDS011;22551;52.206;4.856;2023-04-03T08:11:34;2.80;;;1.05;;
36547;SDS011;22551;52.206;4.856;2023-04-03T08:16:37;3.33;;;1.23;;
36547;SDS011;22551;52.206;4.856;2023-04-03T08:21:41;6.22;;;1.30;;
36547;SDS011;22551;52.206;4.856;2023-04-03T08:26:43;2.03;;;1.05;;
36547;SDS011;22551;52.206;4.856;2023-04-03T08:31:45;3.08;;;1.40;;
36547;SDS011;22551;52.206;4.856;2023-04-03T08:36:51;4.18;;;1.05;;
36547;SDS011;22551;52.206;4.856;2023-04-03T08:41:53;2.55;;;0.90;;
36547;SDS011;22551;52.206;4.856;2023-04-03T08:47:04;2.53;;;1.00;;
36547;SDS011;22551;52.206;4.856;2023-04-03T08:52:25;4.07;;;1.27;;
36547;SDS011;22551;52.206;4.856;2023-04-03T08:57:39;1.30;;;0.98;;
36547;SDS011;22551;52.206;4.856;2023-04-03T09:02:43;5.47;;;1.00;;
36547;SDS011;22551;52.206;4.856;2023-04-03T09:07:49;3.57;;;0.57;;
36547;SDS011;22551;52.206;4.856;2023-04-03T09:13:01;1.15;;;0.57;;
36547;SDS011;22551;52.206;4.856;2023-04-03T09:18:12;1.40;;;0.40;;
36547;SDS011;22551;52.206;4.856;2023-04-03T09:23:24;5.45;;;0.75;;
36547;SDS011;22551;52.206;4.856;2023-04-03T09:28:31;1.65;;;0.50;;
36547;SDS011;22551;52.206;4.856;2023-04-03T09:33:39;0.95;;;0.50;;
36547;SDS011;22551;52.206;4.856;2023-04-03T09:38:43;3.85;;;0.50;;
36547;SDS011;22551;52.206;4.856;2023-04-03T09:43:51;0.95;;;0.30;;
36547;SDS011;22551;52.206;4.856;2023-04-03T09:48:56;0.90;;;0.32;;
36547;SDS011;22551;52.206;4.856;2023-04-03T09:59:44;1.45;;;0.40;;
36547;SDS011;22551;52.206;4.856;2023-04-03T10:04:49;3.15;;;0.50;;
36547;SDS011;22551;52.206;4.856;2023-04-03T10:09:55;3.60;;;0.40;;
36547;SDS011;22551;52.206;4.856;2023-04-03T10:14:59;2.95;;;0.50;;
36547;SDS011;22551;52.206;4.856;2023-04-03T10:20:04;1.05;;;0.20;;
36547;SDS011;22551;52.206;4.856;2023-04-03T10:25:26;0.85;;;0.40;;
36547;SDS011;22551;52.206;4.856;2023-04-03T10:30:38;2.20;;;0.30;;
36547;SDS011;22551;52.206;4.856;2023-04-03T10:35:52;0.35;;;0.10;;
36547;SDS011;22551;52.206;4.856;2023-04-03T10:41:07;0.30;;;0.13;;
36547;SDS011;22551;52.206;4.856;2023-04-03T10:46:17;0.65;;;0.10;;
36547;SDS011;22551;52.206;4.856;2023-04-03T10:51:28;1.75;;;0.20;;
36547;SDS011;22551;52.206;4.856;2023-04-03T10:56:40;0.25;;;0.10;;
36547;SDS011;22551;52.206;4.856;2023-04-03T11:01:46;2.30;;;0.47;;
36547;SDS011;22551;52.206;4.856;2023-04-03T11:06:55;0.60;;;0.28;;
36547;SDS011;22551;52.206;4.856;2023-04-03T11:12:05;1.17;;;0.25;;
36547;SDS011;22551;52.206;4.856;2023-04-03T11:17:18;0.28;;;0.10;;
36547;SDS011;22551;52.206;4.856;2023-04-03T11:22:30;0.25;;;0.20;;
36547;SDS011;22551;52.206;4.856;2023-04-03T11:27:40;1.35;;;0.38;;
36547;SDS011;22551;52.206;4.856;2023-04-03T11:32:52;3.17;;;0.20;;
36547;SDS011;22551;52.206;4.856;2023-04-03T11:38:19;0.13;;;0.13;;
36547;SDS011;22551;52.206;4.856;2023-04-03T11:43:28;1.20;;;0.32;;
36547;SDS011;22551;52.206;4.856;2023-04-03T11:48:41;0.40;;;0.15;;
36547;SDS011;22551;52.206;4.856;2023-04-03T11:53:49;0.32;;;0.10;;
36547;SDS011;22551;52.206;4.856;2023-04-03T12:04:25;1.73;;;0.28;;
36547;SDS011;22551;52.206;4.856;2023-04-03T12:09:31;3.63;;;0.40;;
36547;SDS011;22551;52.206;4.856;2023-04-03T12:20:53;2.35;;;0.35;;
36547;SDS011;22551;52.206;4.856;2023-04-03T12:26:02;0.68;;;0.10;;
36547;SDS011;22551;52.206;4.856;2023-04-03T12:31:24;0.88;;;0.35;;
36547;SDS011;22551;52.206;4.856;2023-04-03T12:36:39;1.10;;;0.25;;
36547;SDS011;22551;52.206;4.856;2023-04-03T12:41:53;0.67;;;0.30;;
36547;SDS011;22551;52.206;4.856;2023-04-03T12:47:08;1.20;;;0.52;;
36547;SDS011;22551;52.206;4.856;2023-04-03T12:52:30;1.25;;;0.60;;
36547;SDS011;22551;52.206;4.856;2023-04-03T12:57:39;2.05;;;0.20;;
36547;SDS011;22551;52.206;4.856;2023-04-03T13:02:43;0.80;;;0.20;;
36547;SDS011;22551;52.206;4.856;2023-04-03T13:07:48;1.02;;;0.50;;
36547;SDS011;22551;52.206;4.856;2023-04-03T13:12:55;0.73;;;0.32;;
36547;SDS011;22551;52.206;4.856;2023-04-03T13:18:01;1.88;;;0.20;;
36547;SDS011;22551;52.206;4.856;2023-04-03T13:23:03;1.17;;;0.30;;
36547;SDS011;22551;52.206;4.856;2023-04-03T13:28:10;0.80;;;0.17;;
36547;SDS011;22551;52.206;4.856;2023-04-03T13:33:21;1.95;;;0.40;;
36547;SDS011;22551;52.206;4.856;2023-04-03T13:38:27;1.88;;;0.95;;
36547;SDS011;22551;52.206;4.856;2023-04-03T13:43:34;3.83;;;0.35;;
36547;SDS011;22551;52.206;4.856;2023-04-03T13:48:40;2.75;;;0.60;;
36547;SDS011;22551;52.206;4.856;2023-04-03T13:53:46;1.55;;;0.30;;
36547;SDS011;22551;52.206;4.856;2023-04-03T13:58:59;1.25;;;0.40;;
36547;SDS011;22551;52.206;4.856;2023-04-03T14:04:22;0.98;;;0.43;;
36547;SDS011;22551;52.206;4.856;2023-04-03T14:09:27;1.75;;;0.30;;
36547;SDS011;22551;52.206;4.856;2023-04-03T14:14:30;2.20;;;0.32;;
36547;SDS011;22551;52.206;4.856;2023-04-03T14:19:37;1.95;;;0.30;;
36547;SDS011;22551;52.206;4.856;2023-04-03T14:24:39;1.95;;;0.57;;
36547;SDS011;22551;52.206;4.856;2023-04-03T14:29:41;0.75;;;0.40;;
36547;SDS011;22551;52.206;4.856;2023-04-03T14:34:45;1.42;;;0.30;;
36547;SDS011;22551;52.206;4.856;2023-04-03T14:39:48;1.42;;;0.68;;
36547;SDS011;22551;52.206;4.856;2023-04-03T14:44:53;1.77;;;0.55;;
36547;SDS011;22551;52.206;4.856;2023-04-03T14:49:57;2.78;;;0.40;;
36547;SDS011;22551;52.206;4.856;2023-04-03T15:00:16;1.40;;;0.47;;
36547;SDS011;22551;52.206;4.856;2023-04-03T15:05:22;1.35;;;0.45;;
36547;SDS011;22551;52.206;4.856;2023-04-03T15:10:26;0.88;;;0.47;;
36547;SDS011;22551;52.206;4.856;2023-04-03T15:15:31;2.33;;;0.60;;
36547;SDS011;22551;52.206;4.856;2023-04-03T15:25:40;1.40;;;0.40;;
36547;SDS011;22551;52.206;4.856;2023-04-03T15:30:44;2.25;;;0.75;;
36547;SDS011;22551;52.206;4.856;2023-04-03T15:35:48;1.63;;;0.63;;
36547;SDS011;22551;52.206;4.856;2023-04-03T15:40:50;1.40;;;0.50;;
36547;SDS011;22551;52.206;4.856;2023-04-03T15:45:52;5.15;;;0.50;;
36547;SDS011;22551;52.206;4.856;2023-04-03T15:51:01;3.90;;;0.70;;
36547;SDS011;22551;52.206;4.856;2023-04-03T15:56:04;2.00;;;0.88;;
36547;SDS011;22551;52.206;4.856;2023-04-03T16:01:08;1.97;;;0.60;;
36547;SDS011;22551;52.206;4.856;2023-04-03T16:06:14;1.25;;;0.50;;
36547;SDS011;22551;52.206;4.856;2023-04-03T16:11:18;1.23;;;0.40;;
36547;SDS011;22551;52.206;4.856;2023-04-03T16:16:22;0.95;;;0.50;;
36547;SDS011;22551;52.206;4.856;2023-04-03T16:21:28;3.17;;;0.68;;
36547;SDS011;22551;52.206;4.856;2023-04-03T16:26:31;1.00;;;0.50;;
36547;SDS011;22551;52.206;4.856;2023-04-03T16:31:33;1.65;;;0.50;;
36547;SDS011;22551;52.206;4.856;2023-04-03T16:36:42;2.40;;;0.40;;
36547;SDS011;22551;52.206;4.856;2023-04-03T16:41:44;0.30;;;0.30;;
36547;SDS011;22551;52.206;4.856;2023-04-03T16:46:47;0.65;;;0.35;;
36547;SDS011;22551;52.206;4.856;2023-04-03T16:51:51;0.93;;;0.40;;
36547;SDS011;22551;52.206;4.856;2023-04-03T16:56:53;1.25;;;0.40;;
36547;SDS011;22551;52.206;4.856;2023-04-03T17:01:56;0.82;;;0.47;;
36547;SDS011;22551;52.206;4.856;2023-04-03T17:06:59;2.28;;;0.60;;
36547;SDS011;22551;52.206;4.856;2023-04-03T17:12:06;1.42;;;0.40;;
36547;SDS011;22551;52.206;4.856;2023-04-03T17:17:08;3.15;;;0.82;;
36547;SDS011;22551;52.206;4.856;2023-04-03T17:22:12;1.75;;;0.73;;
36547;SDS011;22551;52.206;4.856;2023-04-03T17:27:16;6.82;;;0.80;;
36547;SDS011;22551;52.206;4.856;2023-04-03T17:32:18;1.35;;;0.47;;
36547;SDS011;22551;52.206;4.856;2023-04-03T17:37:23;1.30;;;0.40;;
36547;SDS011;22551;52.206;4.856;2023-04-03T17:42:25;6.97;;;1.08;;
36547;SDS011;22551;52.206;4.856;2023-04-03T17:47:30;2.08;;;1.13;;
36547;SDS011;22551;52.206;4.856;2023-04-03T17:52:33;3.90;;;1.10;;
36547;SDS011;22551;52.206;4.856;2023-04-03T17:57:36;7.45;;;0.80;;
36547;SDS011;22551;52.206;4.856;2023-04-03T18:02:38;2.22;;;0.55;;
36547;SDS011;22551;52.206;4.856;2023-04-03T18:07:42;3.45;;;0.75;;
36547;SDS011;22551;52.206;4.856;2023-04-03T18:12:45;2.92;;;0.50;;
36547;SDS011;22551;52.206;4.856;2023-04-03T18:17:47;0.50;;;0.50;;
36547;SDS011;22551;52.206;4.856;2023-04-03T18:22:56;1.15;;;0.47;;
36547;SDS011;22551;52.206;4.856;2023-04-03T18:28:00;1.70;;;0.40;;
36547;SDS011;22551;52.206;4.856;2023-04-03T18:38:09;4.10;;;1.00;;
36547;SDS011;22551;52.206;4.856;2023-04-03T18:43:13;4.78;;;0.88;;
36547;SDS011;22551;52.206;4.856;2023-04-03T18:48:15;2.53;;;0.65;;
36547;SDS011;22551;52.206;4.856;2023-04-03T18:53:19;5.13;;;1.15;;
36547;SDS011;22551;52.206;4.856;2023-04-03T18:58:21;6.50;;;1.00;;
36547;SDS011;22551;52.206;4.856;2023-04-03T19:03:23;3.20;;;1.00;;
36547;SDS011;22551;52.206;4.856;2023-04-03T19:08:29;8.57;;;2.45;;
36547;SDS011;22551;52.206;4.856;2023-04-03T19:13:31;3.70;;;0.93;;
36547;SDS011;22551;52.206;4.856;2023-04-03T19:18:34;2.00;;;0.98;;
36547;SDS011;22551;52.206;4.856;2023-04-03T19:23:37;2.17;;;0.80;;
36547;SDS011;22551;52.206;4.856;2023-04-03T19:28:41;3.70;;;0.93;;
36547;SDS011;22551;52.206;4.856;2023-04-03T19:33:46;1.95;;;1.10;;
36547;SDS011;22551;52.206;4.856;2023-04-03T19:38:50;2.65;;;1.13;;
36547;SDS011;22551;52.206;4.856;2023-04-03T19:43:53;6.35;;;1.30;;
36547;SDS011;22551;52.206;4.856;2023-04-03T19:48:56;3.45;;;0.85;;
36547;SDS011;22551;52.206;4.856;2023-04-03T19:54:00;3.42;;;1.00;;
36547;SDS011;22551;52.206;4.856;2023-04-03T19:59:04;2.72;;;0.80;;
36547;SDS011;22551;52.206;4.856;2023-04-03T20:04:07;1.58;;;0.52;;
36547;SDS011;22551;52.206;4.856;2023-04-03T20:09:11;3.45;;;1.20;;
36547;SDS011;22551;52.206;4.856;2023-04-03T20:14:13;2.40;;;1.40;;
36547;SDS011;22551;52.206;4.856;2023-04-03T20:19:15;3.22;;;1.40;;
36547;SDS011;22551;52.206;4.856;2023-04-03T20:24:19;2.63;;;1.35;;
36547;SDS011;22551;52.206;4.856;2023-04-03T20:29:22;4.57;;;1.25;;
36547;SDS011;22551;52.206;4.856;2023-04-03T20:34:24;2.25;;;0.95;;
36547;SDS011;22551;52.206;4.856;2023-04-03T20:39:28;4.22;;;1.30;;
36547;SDS011;22551;52.206;4.856;2023-04-03T20:44:30;2.83;;;1.40;;
36547;SDS011;22551;52.206;4.856;2023-04-03T20:49:32;4.65;;;1.48;;
36547;SDS011;22551;52.206;4.856;2023-04-03T20:54:36;4.60;;;1.90;;
36547;SDS011;22551;52.206;4.856;2023-04-03T20:59:39;1.33;;;1.00;;
36547;SDS011;22551;52.206;4.856;2023-04-03T21:04:43;5.07;;;1.20;;
36547;SDS011;22551;52.206;4.856;2023-04-03T21:20:55;3.35;;;1.60;;
36547;SDS011;22551;52.206;4.856;2023-04-03T21:25:58;1.38;;;0.70;;
36547;SDS011;22551;52.206;4.856;2023-04-03T21:31:01;5.78;;;1.50;;
36547;SDS011;22551;52.206;4.856;2023-04-03T21:36:04;4.53;;;1.35;;
36547;SDS011;22551;52.206;4.856;2023-04-03T21:41:07;3.90;;;1.17;;
36547;SDS011;22551;52.206;4.856;2023-04-03T21:46:10;3.58;;;0.98;;
36547;SDS011;22551;52.206;4.856;2023-04-03T21:51:14;2.85;;;1.17;;
36547;SDS011;22551;52.206;4.856;2023-04-03T21:56:16;3.33;;;1.17;;
36547;SDS011;22551;52.206;4.856;2023-04-03T22:01:19;3.05;;;1.30;;
36547;SDS011;22551;52.206;4.856;2023-04-03T22:06:23;2.03;;;1.00;;
36547;SDS011;22551;52.206;4.856;2023-04-03T22:11:26;3.85;;;1.02;;
36547;SDS011;22551;52.206;4.856;2023-04-03T22:16:28;4.45;;;1.55;;
36547;SDS011;22551;52.206;4.856;2023-04-03T22:21:32;4.65;;;1.58;;
36547;SDS011;22551;52.206;4.856;2023-04-03T22:26:34;4.72;;;1.77;;
36547;SDS011;22551;52.206;4.856;2023-04-03T22:31:38;4.78;;;1.40;;
36547;SDS011;22551;52.206;4.856;2023-04-03T22:36:45;3.53;;;1.50;;
36547;SDS011;22551;52.206;4.856;2023-04-03T22:46:49;3.75;;;1.63;;
36547;SDS011;22551;52.206;4.856;2023-04-03T22:51:53;4.78;;;1.73;;
36547;SDS011;22551;52.206;4.856;2023-04-03T22:56:55;2.58;;;1.63;;
36547;SDS011;22551;52.206;4.856;2023-04-03T23:01:58;3.10;;;1.65;;
36547;SDS011;22551;52.206;4.856;2023-04-03T23:07:01;3.58;;;1.25;;
36547;SDS011;22551;52.206;4.856;2023-04-03T23:12:04;3.45;;;1.42;;
36547;SDS011;22551;52.206;4.856;2023-04-03T23:17:08;4.78;;;1.58;;
36547;SDS011;22551;52.206;4.856;2023-04-03T23:22:12;4.72;;;1.33;;
36547;SDS011;22551;52.206;4.856;2023-04-03T23:27:15;2.20;;;1.33;;
36547;SDS011;22551;52.206;4.856;2023-04-03T23:32:17;1.70;;;1.20;;
36547;SDS011;22551;52.206;4.856;2023-04-03T23:37:21;2.60;;;1.17;;
36547;SDS011;22551;52.206;4.856;2023-04-03T23:42:23;2.58;;;1.23;;
36547;SDS011;22551;52.206;4.856;2023-04-03T23:47:26;4.28;;;1.40;;
36547;SDS011;22551;52.206;4.856;2023-04-03T23:52:30;3.13;;;1.42;;
36547;SDS011;22551;52.206;4.856;2023-04-03T23:57:32;2.25;;;1.05;;
